Latest Weather Observations for Hughenden

IDQ60801

Issued at 5:35 am EST Sunday 26 October 2014 (issued every 30 minutes, with the page automatically refreshed every 10 minutes)

About weather observations | Map of weather stations | Latest weather observations for QLD | Other Formats
Station Details ID: 030022 Name: HUGHENDEN AIRPORT Lat: -20.82 Lon: 144.23 Height: 316.4 m
Data from the previous 72 hours. | See also: Recent months at Hughenden
Date/Time
EST
Temp
°C
App
Temp
°C
Dew
Point
Rel
Hum
%
Delta-T
°C
Wind Press
QNH
hPa
Press
MSL
hPa
Rain
since 9 am
mm
Dir
 
Spd
km/h
Gust
km/h
Spd
kts
Gust
kts
26/05:30am 21.1 17.9 3.3 31 8.6 NE 9 11 5 6 1016.3 1014.4 0.0
26/05:00am 21.3 17.4 3.5 31 8.6 NE 13 15 7 8 1016.0 1014.1 0.0
26/04:30am 21.9 17.4 4.0 31 8.8 NE 17 20 9 11 1015.7 1013.8 0.0
26/04:00am 21.1 17.5 2.9 30 8.7 ENE 11 13 6 7 1015.7 1013.8 0.0
26/03:30am 21.6 17.6 2.8 29 9.0 NE 13 15 7 8 1015.5 1013.6 0.0
26/03:00am 22.0 18.1 3.6 30 9.0 NE 13 15 7 8 1015.5 1013.6 0.0
26/02:30am 17.8 15.4 0.0 30 7.8 ENE 2 9 1 5 1015.6 1013.7 0.0
26/02:00am 18.6 15.8 -0.2 28 8.3 ENE 4 7 2 4 1015.8 1013.9 0.0
26/01:30am 19.5 16.4 0.0 27 8.7 ENE 6 7 3 4 1016.0 1014.1 0.0
26/01:00am 21.2 18.3 1.5 27 9.2 ENE 6 7 3 4 1016.2 1014.3 0.0
26/12:30am 22.9 20.0 2.4 26 9.9 NNE 7 11 4 6 1016.5 1014.6 0.0
26/12:00am 24.5 20.8 2.6 24 10.7 E 11 13 6 7 1016.8 1014.8 0.0
 
Date/Time
EST
Temp
°C
App
Temp
°C
Dew
Point
Rel
Hum
%
Delta-T
°C
Wind Press
QNH
hPa
Press
MSL
hPa
Rain
since 9 am
mm
Dir
 
Spd
km/h
Gust
km/h
Spd
kts
Gust
kts
25/11:30pm 23.5 19.2 1.2 23 10.5 SE 13 15 7 8 1017.0 1015.0 0.0
25/11:00pm 25.0 20.8 1.8 22 11.2 ESE 13 15 7 8 1017.4 1015.4 0.0
25/10:30pm 25.5 21.4 2.2 22 11.4 E 13 15 7 8 1017.4 1015.4 0.0
25/10:00pm 25.9 22.1 1.9 21 11.7 ESE 11 13 6 7 1017.5 1015.6 0.0
25/09:30pm 25.9 21.7 1.9 21 11.7 ESE 13 13 7 7 1017.3 1015.3 0.0
25/09:00pm 26.6 22.7 1.1 19 12.3 ESE 11 13 6 7 1017.2 1015.2 0.0
25/08:30pm 28.2 24.3 0.9 17 13.3 E 11 15 6 8 1017.1 1015.1 0.0
25/08:00pm 30.2 25.6 1.6 16 14.2 E 15 19 8 10 1016.8 1014.8 0.0
25/07:30pm 30.5 25.8 1.0 15 14.6 E 15 19 8 10 1016.4 1014.5 0.0
25/07:00pm 31.3 26.2 0.6 14 15.1 E 17 22 9 12 1016.0 1014.1 0.0
25/06:30pm 32.6 26.1 0.6 13 15.9 ESE 24 33 13 18 1015.6 1013.7 0.0
25/06:00pm 33.5 26.8 1.3 13 16.3 ESE 26 35 14 19 1015.3 1013.4 0.0
25/05:30pm 34.2 27.0 0.8 12 16.9 ESE 28 39 15 21 1014.9 1013.0 0.0
25/05:00pm 34.9 26.8 1.3 12 17.2 ESE 33 44 18 24 1014.6 1012.6 0.0
25/04:30pm 35.1 27.8 0.2 11 17.5 E 28 39 15 21 1014.4 1012.4 0.0
25/04:03pm 35.8 28.2 0.8 11 17.8 ESE 30 48 16 26 1014.3 1012.3 0.0
25/04:00pm 35.6 28.0 0.6 11 17.8 ESE 30 43 16 23 1014.3 1012.3 0.0
25/03:30pm 35.1 27.4 0.2 11 17.5 ESE 30 44 16 24 1014.6 1012.6 0.0
25/03:03pm 34.9 27.6 0.1 11 17.4 ESE 28 46 15 25 1014.8 1012.9 0.0
25/03:00pm 35.6 28.8 0.6 11 17.8 E 26 44 14 24 1014.9 1013.0 0.0
25/02:39pm 35.7 26.8 0.7 11 17.8 E 37 50 20 27 1015.1 1013.2 0.0
25/02:30pm 35.7 27.7 0.7 11 17.8 SE 32 44 17 24 1015.2 1013.3 0.0
25/02:20pm 35.6 28.4 0.6 11 17.8 E 28 46 15 25 1015.2 1013.3 0.0
25/02:00pm 35.5 27.3 0.6 11 17.7 ESE 33 50 18 27 1015.5 1013.6 0.0
25/01:52pm 35.6 28.0 0.6 11 17.8 ESE 30 48 16 26 1015.7 1013.8 0.0
25/01:30pm 34.8 26.3 1.2 12 17.1 ESE 35 48 19 26 1016.0 1014.1 0.0
25/01:19pm 34.7 27.6 1.1 12 17.1 ESE 28 48 15 26 1016.1 1014.2 0.0
25/01:00pm 33.6 26.3 0.3 12 16.6 ENE 28 39 15 21 1016.4 1014.5 0.0
25/12:47pm 34.3 27.3 1.9 13 16.7 E 28 46 15 25 1016.6 1014.7 0.0
25/12:30pm 33.4 26.7 1.3 13 16.3 E 26 39 14 21 1017.2 1015.2 0.0
25/12:00pm 33.7 26.1 0.4 12 16.6 E 30 39 16 21 1017.6 1015.7 0.0
25/11:30am 32.9 25.9 1.9 14 15.8 E 28 41 15 22 1018.0 1016.1 0.0
25/11:00am 31.7 23.8 1.0 14 15.3 E 32 41 17 22 1018.6 1016.7 0.0
25/10:53am 31.9 25.1 3.0 16 14.9 E 28 46 15 25 1018.7 1016.8 0.0
25/10:30am 31.3 23.8 4.2 18 14.2 E 33 43 18 23 1019.1 1017.2 0.0
25/10:00am 30.0 24.0 5.3 21 13.1 E 26 37 14 20 1019.6 1017.7 0.0
25/09:30am 28.9 22.9 6.9 25 11.9 ENE 28 35 15 19 1020.1 1018.1 0.0
25/09:00am 27.4 22.3 7.8 29 10.7 ENE 24 33 13 18 1020.3 1018.3 0.0
25/08:30am 25.5 20.5 8.1 33 9.4 ENE 24 35 13 19 1020.5 1018.6 0.0
25/08:00am 23.8 18.8 8.2 37 8.4 NE 24 35 13 19 1020.5 1018.6 0.0
25/07:30am 22.7 18.9 9.1 42 7.4 NE 19 28 10 15 1020.4 1018.5 0.0
25/07:00am 21.3 18.5 8.6 44 6.8 ENE 13 17 7 9 1019.9 1018.0 0.0
25/06:30am 20.7 18.5 8.0 44 6.7 E 9 13 5 7 1019.4 1017.5 0.0
25/06:00am 19.6 17.5 6.7 43 6.6 E 7 11 4 6 1018.9 1017.0 0.0
25/05:30am 19.7 17.3 7.1 44 6.5 E 9 11 5 6 1018.6 1016.7 0.0
25/05:00am 19.7 17.3 6.8 43 6.6 E 9 11 5 6 1018.5 1016.6 0.0
25/04:30am 20.4 18.4 7.1 42 6.9 E 7 11 4 6 1018.3 1016.4 0.0
25/04:00am 20.7 18.2 6.6 40 7.2 E 9 13 5 7 1018.0 1016.1 0.0
25/03:30am 21.2 18.7 6.7 39 7.5 NE 9 15 5 8 1017.8 1015.9 0.0
25/03:00am 21.6 18.3 6.3 37 7.8 NE 13 19 7 10 1017.4 1015.4 0.0
25/02:30am 21.9 18.7 5.3 34 8.4 NE 11 15 6 8 1017.6 1015.7 0.0
25/02:00am 22.4 18.8 4.9 32 8.8 NE 13 17 7 9 1017.6 1015.7 0.0
25/01:30am 23.2 19.2 4.7 30 9.3 NE 15 20 8 11 1017.8 1015.9 0.0
25/01:00am 22.6 18.7 3.2 28 9.4 NE 13 17 7 9 1018.1 1016.2 0.0
25/12:30am 23.6 18.8 2.4 25 10.3 NE 17 22 9 12 1018.2 1016.3 0.0
25/12:00am 23.8 19.2 1.4 23 10.6 NE 15 19 8 10 1018.4 1016.5 0.0
 
Date/Time
EST
Temp
°C
App
Temp
°C
Dew
Point
Rel
Hum
%
Delta-T
°C
Wind Press
QNH
hPa
Press
MSL
hPa
Rain
since 9 am
mm
Dir
 
Spd
km/h
Gust
km/h
Spd
kts
Gust
kts
24/11:30pm 25.4 20.5 2.2 22 11.3 NE 17 20 9 11 1018.2 1016.3 0.0
24/11:00pm 21.2 17.6 0.4 25 9.5 SE 9 11 5 6 1018.1 1016.2 0.0
24/10:30pm 23.5 19.6 1.2 23 10.5 ESE 11 13 6 7 1018.1 1016.2 0.0
24/10:00pm 24.4 20.6 1.9 23 10.8 SE 11 13 6 7 1018.0 1016.1 0.0
24/09:30pm 25.0 21.2 1.8 22 11.2 SE 11 13 6 7 1017.9 1016.0 0.0
24/09:00pm 25.8 22.0 1.8 21 11.6 ESE 11 13 6 7 1017.7 1015.8 0.0
24/08:30pm 27.1 23.1 0.8 18 12.7 ESE 11 15 6 8 1017.5 1015.6 0.0
24/08:00pm 28.8 24.2 1.3 17 13.5 E 15 20 8 11 1017.0 1015.0 0.0
24/07:30pm 29.4 24.7 1.0 16 13.9 E 15 20 8 11 1016.5 1014.6 0.0
24/07:00pm 30.5 24.9 1.0 15 14.6 E 20 26 11 14 1016.2 1014.3 0.0
24/06:30pm 31.2 24.7 0.6 14 15.1 E 24 32 13 17 1015.8 1013.9 0.0
24/06:00pm 32.1 25.6 0.2 13 15.7 ESE 24 35 13 19 1015.4 1013.5 0.0
24/05:30pm 32.9 25.9 -0.2 12 16.3 E 26 35 14 19 1015.0 1013.1 0.0
24/05:16pm 33.4 26.1 0.1 12 16.5 ESE 28 46 15 25 1014.9 1013.0 0.0
24/05:00pm 33.4 26.5 0.1 12 16.5 ESE 26 35 14 19 1014.8 1012.9 0.0
24/04:30pm 33.7 25.9 -0.8 11 16.9 ESE 30 41 16 22 1014.7 1012.8 0.0
24/04:00pm 34.0 26.6 -0.6 11 17.0 ESE 28 39 15 21 1014.7 1012.8 0.0
24/03:30pm 34.6 26.5 -0.1 11 17.3 E 32 46 17 25 1014.8 1012.9 0.0
24/03:04pm 34.2 25.9 -0.4 11 17.1 ESE 33 54 18 29 1015.1 1013.2 0.0
24/03:00pm 34.3 26.0 -0.4 11 17.2 ESE 33 46 18 25 1015.2 1013.3 0.0
24/02:30pm 33.9 25.9 0.5 12 16.7 ESE 32 44 17 24 1015.5 1013.6 0.0
24/02:00pm 34.1 26.1 0.7 12 16.8 ESE 32 54 17 29 1016.0 1014.1 0.0
24/01:54pm 34.6 26.7 1.1 12 17.0 ESE 32 54 17 29 1015.9 1014.0 0.0
24/01:30pm 33.9 25.9 0.5 12 16.7 E 32 46 17 25 1016.3 1014.4 0.0
24/01:07pm 33.8 24.5 0.5 12 16.7 E 39 43 21 23 1016.6 1014.7 0.0
24/01:03pm 32.9 24.8 -0.2 12 16.3 ESE 32 50 17 27 1016.9 1014.9 0.0
24/01:00pm 33.4 24.8 0.1 12 16.5 ESE 35 50 19 27 1017.0 1015.0 0.0
24/12:57pm 34.6 25.8 1.1 12 17.0 ESE 37 50 20 27 1017.0 1015.0 0.0
24/12:42pm 34.2 26.3 0.8 12 16.9 E 32 57 17 31 1017.2 1015.2 0.0
24/12:30pm 33.0 24.9 -0.2 12 16.4 E 32 41 17 22 1017.5 1015.6 0.0
24/12:02pm 33.2 25.1 0.0 12 16.4 ESE 32 52 17 28 1018.0 1016.1 0.0
24/12:00pm 33.4 25.7 0.1 12 16.5 ESE 30 39 16 21 1018.1 1016.2 0.0
24/11:30am 31.6 23.5 -0.1 13 15.5 E 32 44 17 24 1018.5 1016.6 0.0
24/11:00am 30.5 23.3 1.0 15 14.6 E 28 46 15 25 1018.9 1017.0 0.0
24/10:57am 31.3 24.2 1.6 15 14.9 E 28 46 15 25 1018.9 1017.0 0.0
24/10:30am 30.2 22.4 1.6 16 14.3 E 32 43 17 23 1019.4 1017.5 0.0
24/10:00am 29.0 23.0 3.1 19 13.1 NE 24 32 13 17 1019.6 1017.7 0.0
24/09:30am 27.8 21.7 4.8 23 11.9 NE 26 35 14 19 1019.8 1017.9 0.0
24/09:00am 26.8 20.2 4.0 23 11.6 ENE 28 39 15 21 1020.1 1018.1 0.0
24/08:30am 25.8 20.0 4.3 25 10.9 NE 24 32 13 17 1020.2 1018.2 0.0
24/08:00am 24.5 18.9 5.3 29 9.8 NE 24 30 13 16 1020.1 1018.1 0.0
24/07:30am 22.7 17.9 5.6 33 8.7 NNE 20 28 11 15 1019.6 1017.7 0.0
24/07:00am 21.0 17.1 7.3 41 7.1 NE 17 20 9 11 1019.3 1017.4 0.0
24/06:30am 19.4 15.9 7.2 45 6.3 NE 15 19 8 10 1019.2 1017.3 0.0
24/06:00am 18.6 15.5 7.1 47 5.9 NE 13 17 7 9 1018.9 1017.0 0.0
24/05:30am 19.1 15.1 6.6 44 6.4 NE 17 22 9 12 1018.6 1016.7 0.0
24/05:00am 19.4 16.0 5.8 41 6.8 ENE 13 19 7 10 1018.5 1016.6 0.0
24/04:30am 19.3 16.3 4.3 37 7.3 ENE 9 13 5 7 1018.5 1016.6 0.0
24/04:00am 20.1 16.3 3.8 34 7.9 ENE 13 17 7 9 1018.0 1016.1 0.0
24/03:30am 21.0 16.1 4.1 33 8.3 NE 19 24 10 13 1018.0 1016.1 0.0
24/03:00am 21.3 16.0 4.8 34 8.2 NE 22 30 12 16 1017.8 1015.9 0.0
24/02:30am 21.9 17.0 7.0 38 7.8 NE 22 30 12 16 1017.8 1015.9 0.0
24/02:00am 22.2 18.0 8.3 41 7.4 NE 20 28 11 15 1017.8 1015.9 0.0
24/01:30am 23.0 18.1 8.3 39 7.9 NE 24 39 13 21 1018.1 1016.2 0.0
24/01:00am 22.4 17.4 4.5 31 8.9 NE 20 26 11 14 1018.1 1016.2 0.0
24/12:30am 23.3 17.9 2.2 25 10.1 NE 20 26 11 14 1018.1 1016.2 0.0
24/12:00am 24.9 19.1 -0.3 19 11.7 ENE 20 26 11 14 1018.1 1016.2 0.0
 
Date/Time
EST
Temp
°C
App
Temp
°C
Dew
Point
Rel
Hum
%
Delta-T
°C
Wind Press
QNH
hPa
Press
MSL
hPa
Rain
since 9 am
mm
Dir
 
Spd
km/h
Gust
km/h
Spd
kts
Gust
kts
23/11:30pm 21.9 17.4 -0.1 23 10.0 ESE 13 17 7 9 1018.0 1016.1 0.0
23/11:00pm 21.7 17.6 -0.3 23 9.9 ESE 11 15 6 8 1018.1 1016.2 0.0
23/10:30pm 22.7 18.3 0.5 23 10.3 ESE 13 15 7 8 1018.1 1016.2 0.0
23/10:00pm 23.1 19.1 0.2 22 10.6 ESE 11 13 6 7 1018.0 1016.1 0.0
23/09:30pm 24.0 20.0 0.4 21 11.0 ESE 11 15 6 8 1018.0 1016.1 0.0
23/09:00pm 25.2 20.9 0.7 20 11.6 ESE 13 15 7 8 1017.6 1015.7 0.0
23/08:30pm 25.6 21.6 0.3 19 11.9 SE 11 13 6 7 1017.2 1015.2 0.0
23/08:00pm 27.1 22.6 0.0 17 12.9 ESE 13 15 7 8 1016.6 1014.7 0.0
23/07:30pm 28.4 23.6 0.2 16 13.6 ESE 15 19 8 10 1016.3 1014.4 0.0
23/07:00pm 29.4 23.8 0.1 15 14.2 ESE 19 24 10 13 1016.0 1014.1 0.0
23/06:30pm 30.2 24.1 0.7 15 14.5 ESE 22 30 12 16 1015.5 1013.6 0.0
23/06:00pm 31.2 24.0 0.6 14 15.1 E 28 39 15 21 1015.1 1013.2 0.0
23/05:30pm 31.7 24.9 1.0 14 15.3 E 26 39 14 21 1014.8 1012.9 0.0
23/05:00pm 32.4 25.7 1.5 14 15.6 ESE 26 39 14 21 1014.7 1012.8 0.0
23/04:30pm 32.5 24.3 0.6 13 15.9 ESE 33 50 18 27 1014.6 1012.6 0.0
23/04:02pm 33.0 25.6 2.0 14 15.8 ESE 30 48 16 26 1014.5 1012.5 0.0
23/04:00pm 32.8 24.9 0.8 13 16.0 E 32 48 17 26 1014.5 1012.5 0.0
23/03:57pm 32.7 25.1 0.7 13 16.0 E 30 48 16 26 1014.3 1012.3 0.0
23/03:30pm 32.6 24.1 0.6 13 15.9 ESE 35 46 19 25 1014.8 1012.9 0.0
23/03:00pm 32.6 24.4 0.6 13 15.9 ESE 33 52 18 28 1014.9 1013.0 0.0
23/02:50pm 32.9 25.0 0.9 13 16.0 E 32 54 17 29 1014.9 1013.0 0.0
23/02:30pm 33.0 25.2 2.0 14 15.8 ESE 32 39 17 21 1015.1 1013.2 0.0
23/02:02pm 32.3 24.0 2.4 15 15.3 E 35 54 19 29 1015.5 1013.6 0.0
23/02:00pm 32.4 23.4 2.5 15 15.3 ESE 39 54 21 29 1015.5 1013.6 0.0
23/01:56pm 32.9 23.8 1.9 14 15.8 ESE 39 54 21 29 1015.5 1013.6 0.0
23/01:30pm 31.8 24.7 3.8 17 14.6 E 30 48 16 26 1015.9 1014.0 0.0
23/01:25pm 32.5 25.5 4.3 17 14.9 E 30 48 16 26 1015.9 1014.0 0.0
23/01:00pm 31.8 24.7 3.8 17 14.6 ESE 30 43 16 23 1016.6 1014.7 0.0
23/12:52pm 32.5 25.5 4.3 17 14.9 ESE 30 48 16 26 1016.8 1014.8 0.0
23/12:30pm 32.1 25.1 4.0 17 14.8 E 30 44 16 24 1017.2 1015.2 0.0
23/12:01pm 32.1 25.1 4.0 17 14.8 E 30 48 16 26 1017.9 1016.0 0.0
23/12:00pm 31.3 24.7 4.2 18 14.2 E 28 41 15 22 1017.9 1016.0 0.0
23/11:50am 31.5 24.9 4.3 18 14.3 E 28 46 15 25 1018.0 1016.1 0.0
23/11:30am 30.5 24.1 5.0 20 13.5 SE 28 41 15 22 1018.4 1016.5 0.0
23/11:19am 30.9 24.1 5.3 20 13.6 E 30 50 16 27 1018.6 1016.7 0.0
23/11:00am 30.0 23.8 6.0 22 12.9 E 28 41 15 22 1018.9 1017.0 0.0
23/10:30am 29.4 23.3 6.7 24 12.3 ESE 28 39 15 21 1019.2 1017.3 0.0
23/10:00am 27.9 22.0 7.7 28 11.0 ENE 28 39 15 21 1019.5 1017.6 0.0
23/09:30am 26.6 22.0 9.5 34 9.6 ENE 24 33 13 18 1019.9 1018.0 0.0
23/09:00am 25.8 22.3 10.8 39 8.5 ENE 20 30 11 16 1020.3 1018.3 0.0
23/08:30am 24.9 20.4 11.5 43 7.7 ENE 26 35 14 19 1020.4 1018.5 0.0
23/08:00am 23.5 19.0 11.5 47 6.8 ENE 26 35 14 19 1020.3 1018.3 0.0
23/07:30am 22.1 18.8 11.5 51 6.0 ENE 20 30 11 16 1019.9 1018.0 0.0
23/07:00am 21.1 17.8 10.9 52 5.7 ENE 19 26 10 14 1019.5 1017.6 0.0
23/06:30am 19.9 17.6 10.3 54 5.3 ENE 13 17 7 9 1019.1 1017.2 0.0
23/06:00am 18.9 17.3 10.2 57 4.7 ENE 9 15 5 8 1018.8 1016.9 0.0

Other Formats:

Comma delimited format used in spreadsheet applications
http://www.bom.gov.au/fwo/IDQ60801/IDQ60801.94343.axf

JavaScript Object Notation format (JSON) in row-major order
http://www.bom.gov.au/fwo/IDQ60801/IDQ60801.94343.json